Time;durP1;ratioP1;P1;durP2;ratioP2;P2;SDS_P1;SDS_P2;PMS_P1;PMS_P2;Temp;Humidity;BMP_temperature;BMP_pressure;BME280_temperature;BME280_humidity;BME280_pressure;Samples;Min_cycle;Max_cycle;Signal;HPM_P1;HPM_P2
2023/08/16 00:02:05;;;;;;;2.10;0.38;;;17.80;99.90;;;;;;4941479;28;20077;-83
2023/08/16 00:04:31;;;;;;;0.77;0.30;;;17.70;99.90;;;;;;4947870;28;20058;-83
2023/08/16 00:06:57;;;;;;;0.68;0.30;;;17.70;99.90;;;;;;4962714;28;20035;-84
2023/08/16 00:09:23;;;;;;;0.60;0.30;;;17.70;99.90;;;;;;4971376;28;20463;-83
2023/08/16 00:11:48;;;;;;;0.80;0.30;;;17.70;99.90;;;;;;4967671;28;20050;-83
2023/08/16 00:14:14;;;;;;;0.80;0.20;;;17.60;99.90;;;;;;4965454;28;20034;-84
2023/08/16 00:16:40;;;;;;;0.88;0.35;;;17.60;99.90;;;;;;4958084;28;20079;-83
2023/08/16 00:19:06;;;;;;;1.17;0.40;;;17.50;99.90;;;;;;4962504;28;20036;-83
2023/08/16 00:21:31;;;;;;;1.50;0.40;;;17.50;99.90;;;;;;4945298;28;20130;-82
2023/08/16 00:23:57;;;;;;;2.22;0.40;;;17.40;99.90;;;;;;4944834;28;20035;-84
2023/08/16 00:26:23;;;;;;;1.60;0.40;;;17.50;99.90;;;;;;4962726;28;20026;-83
2023/08/16 00:28:49;;;;;;;1.35;0.50;;;17.40;99.90;;;;;;4950211;28;20023;-84
2023/08/16 00:31:15;;;;;;;1.80;0.40;;;17.40;99.90;;;;;;4965400;28;20029;-85
2023/08/16 00:33:41;;;;;;;1.15;0.40;;;17.40;99.90;;;;;;4946951;28;20432;-85
2023/08/16 00:36:07;;;;;;;1.10;0.32;;;17.40;99.90;;;;;;4957271;28;20026;-83
2023/08/16 00:38:34;;;;;;;2.35;0.40;;;17.40;99.90;;;;;;4956789;28;20065;-84
2023/08/16 00:40:59;;;;;;;0.98;0.40;;;17.40;99.90;;;;;;4946135;28;20479;-85
2023/08/16 00:43:26;;;;;;;1.42;0.40;;;17.40;99.90;;;;;;4950751;28;20031;-86
2023/08/16 00:45:52;;;;;;;1.30;0.50;;;17.40;99.90;;;;;;4962245;28;20078;-83
2023/08/16 00:48:20;;;;;;;2.30;0.43;;;17.30;99.90;;;;;;4947486;28;20038;-83
2023/08/16 00:50:46;;;;;;;2.63;0.50;;;17.40;99.90;;;;;;4945637;28;20042;-83
2023/08/16 00:53:13;;;;;;;1.58;0.50;;;17.30;99.90;;;;;;4963683;28;20035;-85
2023/08/16 00:55:39;;;;;;;2.25;0.50;;;17.30;99.90;;;;;;4965388;28;20033;-83
2023/08/16 00:58:06;;;;;;;1.23;0.40;;;17.30;99.90;;;;;;4949194;28;20396;-83
2023/08/16 01:00:32;;;;;;;1.52;0.40;;;17.30;99.90;;;;;;4943304;28;20463;-84
2023/08/16 01:02:58;;;;;;;2.03;0.50;;;17.30;99.90;;;;;;4946571;28;20038;-83
2023/08/16 01:05:24;;;;;;;0.90;0.40;;;17.30;99.90;;;;;;4948534;28;20387;-85
2023/08/16 01:07:50;;;;;;;1.45;0.57;;;17.30;99.90;;;;;;4964273;28;20105;-83
2023/08/16 01:10:16;;;;;;;1.80;0.60;;;17.30;99.90;;;;;;4962875;28;20019;-83
2023/08/16 01:12:55;;;;;;;1.67;0.68;;;17.20;99.90;;;;;;4947755;28;20027;-84
2023/08/16 01:15:28;;;;;;;1.57;0.50;;;17.20;99.90;;;;;;4953419;28;20383;-85
2023/08/16 01:17:55;;;;;;;1.30;0.47;;;17.20;99.90;;;;;;4962944;28;20027;-85
2023/08/16 01:20:21;;;;;;;0.88;0.40;;;17.10;99.90;;;;;;4961173;28;20428;-83
2023/08/16 01:23:44;;;;;;;1.90;0.50;;;17.20;99.90;;;;;;4945431;28;20057;-84
2023/08/16 01:26:21;;;;;;;1.50;0.73;;;17.10;99.90;;;;;;4896932;29;20134;-83
2023/08/16 01:28:47;;;;;;;1.30;0.50;;;17.20;99.90;;;;;;4896967;29;20035;-83
2023/08/16 01:31:13;;;;;;;2.15;0.50;;;17.20;99.90;;;;;;4912744;29;20504;-84
2023/08/16 01:33:40;;;;;;;1.63;0.50;;;17.20;99.90;;;;;;4897402;29;20139;-83
2023/08/16 01:36:07;;;;;;;1.30;0.50;;;17.10;99.90;;;;;;4912567;29;20028;-83
2023/08/16 01:38:33;;;;;;;1.08;0.45;;;17.10;99.90;;;;;;4913595;29;20070;-82
2023/08/16 01:41:07;;;;;;;2.00;0.50;;;17.00;99.90;;;;;;4912782;29;20497;-84
2023/08/16 01:43:34;;;;;;;2.03;0.60;;;17.00;99.90;;;;;;4926682;29;20048;-84
2023/08/16 01:46:02;;;;;;;1.70;0.55;;;17.00;99.90;;;;;;4912533;29;20575;-84
2023/08/16 01:48:29;;;;;;;1.70;0.50;;;17.00;99.90;;;;;;4912788;29;20031;-85
2023/08/16 01:50:55;;;;;;;2.05;0.50;;;17.00;99.90;;;;;;4896856;29;20031;-83
2023/08/16 01:53:22;;;;;;;1.48;0.50;;;17.00;99.90;;;;;;4913003;29;20398;-84
2023/08/16 01:55:47;;;;;;;2.40;0.60;;;17.00;99.90;;;;;;4917985;28;20555;-84
2023/08/16 01:58:13;;;;;;;1.30;0.50;;;17.00;99.90;;;;;;4950806;28;20123;-84
2023/08/16 02:00:39;;;;;;;2.90;0.50;;;17.00;99.90;;;;;;4943696;28;20052;-83
2023/08/16 02:03:05;;;;;;;2.00;0.45;;;17.00;99.90;;;;;;4962542;28;20038;-83
2023/08/16 02:05:30;;;;;;;3.92;0.82;;;17.00;99.90;;;;;;4956182;28;20030;-83
2023/08/16 02:07:56;;;;;;;2.05;0.80;;;17.10;99.90;;;;;;4962465;28;20035;-85
2023/08/16 02:10:22;;;;;;;2.85;0.70;;;17.00;99.90;;;;;;4961287;28;20078;-84
2023/08/16 02:12:47;;;;;;;1.63;0.60;;;17.00;99.90;;;;;;4971623;28;20023;-84
2023/08/16 02:15:14;;;;;;;2.88;0.90;;;17.00;99.90;;;;;;4955257;28;20109;-84
2023/08/16 02:17:41;;;;;;;3.03;0.60;;;16.90;99.90;;;;;;4942491;28;20024;-84
2023/08/16 02:20:08;;;;;;;3.40;1.00;;;16.90;99.90;;;;;;4948102;28;20037;-83
2023/08/16 02:22:34;;;;;;;2.42;0.90;;;16.80;99.90;;;;;;4958329;28;20050;-84
2023/08/16 02:25:00;;;;;;;2.05;0.70;;;16.90;99.90;;;;;;4949410;28;20383;-83
2023/08/16 02:27:25;;;;;;;1.92;0.60;;;16.90;99.90;;;;;;4957694;28;20035;-84
2023/08/16 02:29:51;;;;;;;1.73;0.55;;;16.90;99.90;;;;;;4949287;28;20035;-85
2023/08/16 02:32:18;;;;;;;1.55;0.68;;;16.90;99.90;;;;;;4959339;28;20030;-83
2023/08/16 02:34:44;;;;;;;1.23;0.52;;;16.90;99.90;;;;;;4951158;28;20133;-84
2023/08/16 02:37:10;;;;;;;2.83;0.57;;;17.00;99.90;;;;;;4949876;28;20064;-83
2023/08/16 02:39:35;;;;;;;1.25;0.45;;;16.90;99.90;;;;;;4961103;28;20434;-83
2023/08/16 02:42:01;;;;;;;1.85;0.70;;;16.90;99.90;;;;;;4941394;28;20062;-85
2023/08/16 02:44:27;;;;;;;1.95;0.55;;;16.80;99.90;;;;;;4959945;28;20027;-84
2023/08/16 02:46:53;;;;;;;4.72;1.20;;;16.80;99.90;;;;;;4956487;28;20389;-84
2023/08/16 02:49:19;;;;;;;1.55;0.70;;;16.80;99.90;;;;;;4946872;28;20031;-83
2023/08/16 02:51:44;;;;;;;2.28;0.60;;;16.90;99.90;;;;;;4959545;28;20068;-85
2023/08/16 02:54:10;;;;;;;3.28;0.50;;;16.80;99.90;;;;;;4953217;28;20443;-84
2023/08/16 02:56:36;;;;;;;1.33;0.45;;;16.90;99.90;;;;;;4951511;28;20085;-82
2023/08/16 02:59:02;;;;;;;1.48;0.70;;;16.90;99.90;;;;;;4950167;28;20386;-84
2023/08/16 03:01:27;;;;;;;1.23;0.50;;;16.90;99.90;;;;;;4965666;28;20038;-84
2023/08/16 03:03:53;;;;;;;2.67;0.80;;;16.80;99.90;;;;;;4964021;28;20089;-83
2023/08/16 03:06:20;;;;;;;1.55;0.52;;;16.80;99.90;;;;;;4966234;28;20080;-84
2023/08/16 03:08:46;;;;;;;2.83;0.70;;;16.80;99.90;;;;;;4962518;28;20027;-84
2023/08/16 03:11:12;;;;;;;1.73;0.60;;;16.80;99.90;;;;;;4961676;28;20134;-84
2023/08/16 03:13:37;;;;;;;1.75;0.80;;;16.80;99.90;;;;;;4949001;28;20027;-84
2023/08/16 03:16:03;;;;;;;1.73;0.80;;;16.80;99.90;;;;;;4964608;28;20118;-84
2023/08/16 03:18:29;;;;;;;1.83;0.82;;;16.70;99.90;;;;;;4948617;28;20404;-85
2023/08/16 03:20:55;;;;;;;1.10;0.40;;;16.70;99.90;;;;;;4947536;28;20038;-85
2023/08/16 03:23:20;;;;;;;2.13;0.70;;;16.70;99.90;;;;;;4952157;28;20027;-83
2023/08/16 03:25:46;;;;;;;1.58;0.60;;;16.60;99.90;;;;;;4956007;28;20365;-85
2023/08/16 03:28:13;;;;;;;3.15;0.80;;;16.50;99.90;;;;;;4948552;28;20047;-84
2023/08/16 03:30:39;;;;;;;3.38;0.80;;;16.50;99.90;;;;;;4953081;28;20035;-85
2023/08/16 03:33:06;;;;;;;2.50;0.90;;;16.50;99.90;;;;;;4963960;28;20438;-84
2023/08/16 03:35:32;;;;;;;2.30;0.52;;;16.50;99.90;;;;;;4964943;28;20030;-84
2023/08/16 03:37:58;;;;;;;1.15;0.43;;;16.60;99.90;;;;;;4946181;28;20035;-84
2023/08/16 03:40:24;;;;;;;1.35;0.50;;;16.60;99.90;;;;;;4965169;28;20030;-84
2023/08/16 03:42:50;;;;;;;3.00;0.90;;;16.50;99.90;;;;;;4962194;28;20479;-85
2023/08/16 03:45:16;;;;;;;3.03;1.42;;;16.40;99.90;;;;;;4960257;28;20431;-82
2023/08/16 03:47:43;;;;;;;2.50;1.05;;;16.30;99.90;;;;;;4961821;28;20126;-84
2023/08/16 03:50:09;;;;;;;2.35;0.85;;;16.30;99.90;;;;;;4944749;28;20039;-83
2023/08/16 03:52:35;;;;;;;1.73;0.90;;;16.30;99.90;;;;;;4953073;28;20027;-83
2023/08/16 03:55:01;;;;;;;2.15;0.73;;;16.30;99.90;;;;;;4949454;28;20075;-83
2023/08/16 03:57:26;;;;;;;2.78;0.50;;;16.30;99.90;;;;;;4965822;28;20381;-84
2023/08/16 03:59:52;;;;;;;1.75;0.73;;;16.30;99.90;;;;;;4943799;28;20058;-84
2023/08/16 04:02:19;;;;;;;1.70;0.50;;;16.30;99.90;;;;;;4966382;28;20038;-84
2023/08/16 04:04:45;;;;;;;2.03;0.75;;;16.30;99.90;;;;;;4961461;28;20031;-84
2023/08/16 04:07:11;;;;;;;2.78;0.88;;;16.20;99.90;;;;;;4955700;28;20041;-83
2023/08/16 04:09:37;;;;;;;1.83;0.82;;;16.10;99.90;;;;;;4966233;28;20077;-84
2023/08/16 04:12:03;;;;;;;2.20;0.60;;;16.20;99.90;;;;;;4949767;28;20475;-84
2023/08/16 04:14:29;;;;;;;1.42;0.60;;;16.20;99.90;;;;;;4948083;28;20027;-83
2023/08/16 04:16:55;;;;;;;1.73;0.70;;;16.10;99.90;;;;;;4961957;28;20042;-83
2023/08/16 04:19:22;;;;;;;2.00;0.88;;;16.20;99.90;;;;;;4962056;28;20030;-84
2023/08/16 04:21:49;;;;;;;1.88;1.10;;;16.10;99.90;;;;;;4950947;28;20051;-83
2023/08/16 04:24:14;;;;;;;1.95;1.00;;;16.10;99.90;;;;;;4956161;28;20024;-84
2023/08/16 04:26:40;;;;;;;2.08;0.60;;;16.10;99.90;;;;;;4962112;28;20038;-84
2023/08/16 04:29:06;;;;;;;3.03;1.00;;;16.10;99.90;;;;;;4965027;28;20035;-84
2023/08/16 04:31:32;;;;;;;2.95;0.98;;;16.00;99.90;;;;;;4960882;28;20030;-84
2023/08/16 04:33:58;;;;;;;2.03;1.02;;;16.00;99.90;;;;;;4967195;28;20054;-83
2023/08/16 04:36:25;;;;;;;2.38;1.17;;;16.00;99.90;;;;;;4961003;28;20425;-84
2023/08/16 04:38:50;;;;;;;2.50;0.90;;;16.00;99.90;;;;;;4962667;28;20024;-84
2023/08/16 04:41:16;;;;;;;3.50;1.40;;;16.00;99.90;;;;;;4958040;28;20039;-84
2023/08/16 04:43:42;;;;;;;3.00;1.60;;;16.00;99.90;;;;;;4962675;28;20502;-84
2023/08/16 04:46:08;;;;;;;3.00;1.10;;;16.00;99.90;;;;;;4953378;28;20126;-84
2023/08/16 04:48:35;;;;;;;1.98;0.77;;;16.10;99.90;;;;;;4943139;28;20400;-84
2023/08/16 04:51:01;;;;;;;3.53;1.08;;;16.10;99.90;;;;;;4957228;28;20016;-83
2023/08/16 04:53:27;;;;;;;2.30;0.90;;;16.10;99.90;;;;;;4965894;28;20028;-84
2023/08/16 04:55:54;;;;;;;1.80;0.70;;;16.10;99.90;;;;;;4951553;28;20039;-84
2023/08/16 04:58:20;;;;;;;1.40;0.75;;;16.20;99.90;;;;;;4958748;28;20114;-85
2023/08/16 05:00:49;;;;;;;3.00;0.80;;;16.20;99.90;;;;;;4962604;28;20170;-84
2023/08/16 05:03:14;;;;;;;2.00;0.80;;;16.20;99.90;;;;;;4960969;28;20121;-86
2023/08/16 05:05:40;;;;;;;3.05;0.80;;;16.10;99.90;;;;;;4944344;28;20023;-84
2023/08/16 05:08:07;;;;;;;3.15;0.82;;;16.20;99.90;;;;;;4962635;28;20097;-85
2023/08/16 05:10:33;;;;;;;2.10;0.80;;;16.20;99.90;;;;;;4957626;28;20023;-85
2023/08/16 05:13:00;;;;;;;4.35;0.70;;;16.20;99.90;;;;;;4962061;28;20552;-84
2023/08/16 05:15:26;;;;;;;2.65;1.00;;;16.20;99.90;;;;;;4955333;28;20067;-85
2023/08/16 05:17:51;;;;;;;1.80;0.75;;;16.30;99.90;;;;;;4946304;28;20487;-84
2023/08/16 05:20:18;;;;;;;1.77;0.60;;;16.30;99.90;;;;;;4944828;28;20035;-84
2023/08/16 05:22:44;;;;;;;2.35;0.70;;;16.30;99.90;;;;;;4922252;28;20062;-82
2023/08/16 05:25:10;;;;;;;1.67;0.65;;;16.30;99.90;;;;;;4943906;28;20039;-84
2023/08/16 05:27:36;;;;;;;3.03;0.70;;;16.40;99.90;;;;;;4931874;28;20543;-83
2023/08/16 05:30:02;;;;;;;2.53;0.73;;;16.40;99.90;;;;;;4950194;28;20038;-84
2023/08/16 05:32:28;;;;;;;1.00;0.50;;;16.40;99.90;;;;;;4944478;28;20054;-84
2023/08/16 05:34:54;;;;;;;2.58;0.63;;;16.50;99.90;;;;;;4946152;28;20054;-84
2023/08/16 05:37:20;;;;;;;3.63;1.27;;;16.50;99.90;;;;;;4961406;28;20117;-84
2023/08/16 05:39:46;;;;;;;2.50;1.27;;;16.50;99.90;;;;;;4954267;28;20041;-84
2023/08/16 05:42:12;;;;;;;2.88;1.20;;;16.40;99.90;;;;;;4943974;28;20035;-84
2023/08/16 05:44:38;;;;;;;2.35;1.08;;;16.40;99.90;;;;;;4944679;28;20058;-83
2023/08/16 05:47:04;;;;;;;2.38;0.90;;;16.50;99.90;;;;;;4959765;28;20113;-84
2023/08/16 05:49:29;;;;;;;2.67;0.65;;;16.60;99.90;;;;;;4942095;28;20055;-84
2023/08/16 05:51:55;;;;;;;4.50;2.15;;;16.60;99.90;;;;;;4962574;28;20047;-84
2023/08/16 05:54:21;;;;;;;3.97;1.10;;;16.60;99.90;;;;;;4955098;28;20126;-84
2023/08/16 05:56:47;;;;;;;3.17;1.58;;;16.60;99.90;;;;;;4955403;28;20057;-82
2023/08/16 05:59:13;;;;;;;3.63;1.00;;;16.60;99.90;;;;;;4956412;28;20027;-84
2023/08/16 06:01:39;;;;;;;4.10;0.90;;;16.60;99.90;;;;;;4944244;28;20035;-84
2023/08/16 06:04:05;;;;;;;3.38;0.88;;;16.80;99.90;;;;;;4946005;28;20074;-84
2023/08/16 06:06:31;;;;;;;2.03;0.75;;;16.90;99.90;;;;;;4950516;28;20031;-83
2023/08/16 06:08:56;;;;;;;2.33;0.93;;;16.80;99.90;;;;;;4957738;28;20035;-83
2023/08/16 06:11:22;;;;;;;2.63;0.90;;;16.90;99.90;;;;;;4960128;28;20605;-84
2023/08/16 06:13:48;;;;;;;1.95;0.60;;;17.00;99.90;;;;;;4960434;28;20030;-83
2023/08/16 06:16:14;;;;;;;5.13;0.93;;;17.10;99.90;;;;;;4942321;28;20125;-83
2023/08/16 06:18:39;;;;;;;3.13;0.73;;;17.20;99.90;;;;;;4961651;28;20023;-83
2023/08/16 06:21:05;;;;;;;4.20;1.15;;;17.40;99.90;;;;;;4958629;28;20484;-84
2023/08/16 06:23:31;;;;;;;2.72;0.80;;;17.40;99.90;;;;;;4956897;28;20026;-83
2023/08/16 06:25:56;;;;;;;2.08;0.80;;;17.60;99.90;;;;;;4947779;28;20452;-84
2023/08/16 06:28:22;;;;;;;3.00;0.85;;;17.70;99.90;;;;;;4963958;28;20531;-83
2023/08/16 06:30:48;;;;;;;2.30;0.65;;;17.90;99.90;;;;;;4946551;28;20059;-83
2023/08/16 06:33:13;;;;;;;2.70;0.77;;;18.10;99.90;;;;;;4958319;28;20467;-84
2023/08/16 06:35:39;;;;;;;2.53;0.88;;;18.00;99.90;;;;;;4962988;28;20031;-83
2023/08/16 06:38:06;;;;;;;1.38;0.65;;;18.00;99.90;;;;;;4965332;28;20027;-84
2023/08/16 06:40:32;;;;;;;5.00;1.33;;;18.00;99.90;;;;;;4946660;28;20068;-84
2023/08/16 06:42:57;;;;;;;2.10;0.80;;;17.90;99.90;;;;;;4960014;28;20053;-83
2023/08/16 06:45:23;;;;;;;1.63;0.70;;;17.80;99.90;;;;;;4960116;28;20035;-83
2023/08/16 06:47:49;;;;;;;4.15;1.23;;;17.90;99.90;;;;;;4949496;28;20018;-83
2023/08/16 06:50:15;;;;;;;2.58;1.00;;;17.80;99.90;;;;;;4947859;28;20050;-83
2023/08/16 06:52:42;;;;;;;2.13;0.73;;;17.90;99.90;;;;;;4960232;28;20041;-83
2023/08/16 06:55:08;;;;;;;2.00;0.63;;;18.00;99.90;;;;;;4946099;28;20023;-83
2023/08/16 06:57:34;;;;;;;2.75;1.10;;;17.90;99.90;;;;;;4963025;28;20379;-84
2023/08/16 07:00:00;;;;;;;1.98;0.80;;;18.00;99.90;;;;;;4943527;28;20169;-83
2023/08/16 07:02:25;;;;;;;2.47;0.60;;;18.00;99.90;;;;;;4958991;28;20047;-82
2023/08/16 07:04:51;;;;;;;2.20;0.50;;;18.20;99.90;;;;;;4956475;28;20031;-84
2023/08/16 07:07:18;;;;;;;3.08;0.50;;;18.20;99.90;;;;;;4961908;28;20028;-84
2023/08/16 07:09:44;;;;;;;1.15;0.45;;;18.20;99.90;;;;;;4965683;28;20027;-83
2023/08/16 07:12:09;;;;;;;3.58;0.60;;;18.40;99.90;;;;;;4949697;28;20038;-83
2023/08/16 07:14:35;;;;;;;2.17;0.50;;;18.40;99.90;;;;;;4969647;28;20030;-84
2023/08/16 07:17:02;;;;;;;1.65;0.50;;;18.60;99.90;;;;;;4960210;28;20526;-83
2023/08/16 07:19:27;;;;;;;3.22;0.75;;;18.60;99.90;;;;;;4960806;28;20426;-83
2023/08/16 07:21:53;;;;;;;1.80;0.60;;;18.60;99.90;;;;;;4963245;28;20039;-83
2023/08/16 07:24:19;;;;;;;1.55;0.40;;;18.80;99.90;;;;;;4950889;28;20127;-82
2023/08/16 07:26:44;;;;;;;2.38;0.70;;;18.90;99.90;;;;;;4958763;28;20027;-83
2023/08/16 07:29:10;;;;;;;1.98;0.60;;;18.60;99.90;;;;;;4964425;28;20027;-83
2023/08/16 07:31:36;;;;;;;1.83;0.60;;;18.70;99.90;;;;;;4943855;28;20031;-84
2023/08/16 07:34:02;;;;;;;2.83;0.70;;;18.70;99.90;;;;;;4964375;28;20101;-83
2023/08/16 07:36:28;;;;;;;2.10;0.60;;;18.60;99.90;;;;;;4945923;28;20024;-84
2023/08/16 07:38:53;;;;;;;3.05;0.70;;;18.70;99.90;;;;;;4962585;28;20023;-83
2023/08/16 07:41:19;;;;;;;4.10;0.80;;;18.70;99.90;;;;;;4972472;28;20689;-83
2023/08/16 07:43:45;;;;;;;2.03;0.50;;;18.80;99.90;;;;;;4963597;28;20031;-83
2023/08/16 07:46:10;;;;;;;1.98;0.70;;;19.10;99.90;;;;;;4966998;28;20077;-83
2023/08/16 07:48:36;;;;;;;4.13;2.25;;;19.10;99.90;;;;;;4956988;28;20035;-83
2023/08/16 07:51:02;;;;;;;4.15;0.80;;;19.00;99.90;;;;;;4958995;28;20408;-83
2023/08/16 07:53:27;;;;;;;2.63;0.70;;;19.20;99.90;;;;;;4957811;28;20073;-83
2023/08/16 07:55:53;;;;;;;2.40;0.68;;;19.60;99.90;;;;;;4957209;28;20476;-83
2023/08/16 07:58:19;;;;;;;3.95;0.70;;;19.70;99.90;;;;;;4955814;28;20030;-83
2023/08/16 08:00:47;;;;;;;1.58;0.50;;;19.70;99.90;;;;;;4961709;28;20031;-84
2023/08/16 08:03:13;;;;;;;2.10;0.50;;;19.80;99.90;;;;;;4945922;28;20035;-83
2023/08/16 08:05:39;;;;;;;5.35;0.70;;;19.70;99.90;;;;;;4961834;28;20029;-83
2023/08/16 08:08:06;;;;;;;2.67;0.55;;;19.70;99.90;;;;;;4958050;28;20027;-82
2023/08/16 08:10:31;;;;;;;4.95;1.67;;;19.90;99.90;;;;;;4950754;28;20270;-84
2023/08/16 08:12:58;;;;;;;3.65;0.60;;;19.80;99.90;;;;;;4961843;28;20163;-83
2023/08/16 08:15:23;;;;;;;1.60;0.60;;;20.00;99.90;;;;;;4957448;28;20688;-83
2023/08/16 08:17:49;;;;;;;2.17;0.50;;;20.00;99.90;;;;;;4959875;28;20249;-83
2023/08/16 08:20:15;;;;;;;1.88;0.50;;;20.10;99.90;;;;;;4961782;28;20394;-83
2023/08/16 08:22:41;;;;;;;4.25;0.77;;;20.10;99.90;;;;;;4959267;28;20043;-84
2023/08/16 08:25:08;;;;;;;1.73;0.55;;;20.20;99.90;;;;;;4960595;28;20027;-83
2023/08/16 08:27:34;;;;;;;2.22;0.43;;;20.40;99.90;;;;;;4950052;28;20034;-83
2023/08/16 08:30:00;;;;;;;2.42;0.50;;;20.60;99.90;;;;;;4944341;28;20474;-83
2023/08/16 08:32:26;;;;;;;3.38;0.68;;;20.50;99.90;;;;;;4950116;28;20039;-83
2023/08/16 08:34:52;;;;;;;2.60;0.55;;;20.40;99.90;;;;;;4960569;28;20091;-83
2023/08/16 08:37:17;;;;;;;2.35;0.50;;;20.70;99.90;;;;;;4970245;28;20391;-83
2023/08/16 08:39:43;;;;;;;2.10;0.60;;;20.70;99.90;;;;;;4958564;28;20030;-83
2023/08/16 08:42:09;;;;;;;2.88;0.50;;;20.90;99.90;;;;;;4956870;28;20035;-83
2023/08/16 08:44:41;;;;;;;1.58;0.40;;;21.20;99.90;;;;;;4960593;28;20471;-83
2023/08/16 08:47:08;;;;;;;1.58;0.40;;;21.50;99.90;;;;;;4961235;28;20034;-83
2023/08/16 08:49:37;;;;;;;4.65;0.80;;;21.50;99.90;;;;;;4960005;28;20046;-83
2023/08/16 08:52:04;;;;;;;2.27;0.53;;;21.50;99.90;;;;;;4941409;28;20158;-84
2023/08/16 08:54:31;;;;;;;4.57;0.60;;;21.20;99.90;;;;;;4971111;28;20369;-83
2023/08/16 08:57:03;;;;;;;3.20;0.50;;;21.30;99.90;;;;;;4957064;28;20035;-83
2023/08/16 08:59:33;;;;;;;2.72;0.60;;;21.50;99.90;;;;;;4946026;28;20039;-83
2023/08/16 09:01:59;;;;;;;2.53;0.50;;;21.60;99.90;;;;;;4969775;28;20051;-83
2023/08/16 09:04:26;;;;;;;1.85;0.47;;;21.70;99.90;;;;;;4958107;28;20475;-83
2023/08/16 09:06:53;;;;;;;1.83;0.50;;;22.10;99.90;;;;;;4945310;28;20041;-83
2023/08/16 09:09:20;;;;;;;1.65;0.40;;;22.40;99.90;;;;;;4946221;28;20035;-82
2023/08/16 09:11:46;;;;;;;2.58;0.47;;;22.60;99.90;;;;;;4956125;28;20097;-83
2023/08/16 09:14:11;;;;;;;1.77;0.40;;;22.20;99.90;;;;;;4955884;28;20054;-83
2023/08/16 09:16:37;;;;;;;2.63;0.60;;;22.30;99.90;;;;;;4954987;28;20049;-83
2023/08/16 09:19:11;;;;;;;1.83;0.52;;;22.40;99.90;;;;;;4953634;28;20027;-83
2023/08/16 09:21:36;;;;;;;2.35;0.50;;;22.60;99.90;;;;;;4959861;28;20043;-83
2023/08/16 09:24:03;;;;;;;1.80;0.40;;;22.70;99.90;;;;;;4961024;28;20408;-83
2023/08/16 09:26:29;;;;;;;1.40;0.40;;;22.70;99.90;;;;;;4954461;28;20164;-84
2023/08/16 09:29:04;;;;;;;1.58;0.40;;;22.70;99.90;;;;;;4955090;28;20042;-83
2023/08/16 09:31:37;;;;;;;1.95;0.40;;;23.00;99.90;;;;;;4955231;28;20051;-83
2023/08/16 09:34:03;;;;;;;2.05;0.50;;;23.10;99.90;;;;;;4954127;28;20055;-83
2023/08/16 09:36:30;;;;;;;2.75;0.60;;;22.90;99.90;;;;;;4956791;28;20030;-82
2023/08/16 09:39:14;;;;;;;2.28;0.60;;;22.70;99.90;;;;;;4952812;28;20387;-82
2023/08/16 09:41:52;;;;;;;3.42;0.50;;;22.50;99.90;;;;;;4953236;28;20035;-83
2023/08/16 09:44:18;;;;;;;2.83;0.50;;;22.60;99.90;;;;;;4958636;28;20232;-82
2023/08/16 09:46:45;;;;;;;2.05;0.45;;;22.40;99.90;;;;;;4956751;28;20046;-82
2023/08/16 09:49:11;;;;;;;1.65;0.35;;;22.90;99.90;;;;;;4963156;28;20106;-82
2023/08/16 09:51:38;;;;;;;1.20;0.30;;;23.70;99.90;;;;;;4957830;28;20134;-83
2023/08/16 09:54:14;;;;;;;3.35;0.40;;;23.80;99.90;;;;;;4940582;28;20121;-83
2023/08/16 09:56:42;;;;;;;2.10;0.40;;;23.40;99.90;;;;;;4953104;28;20480;-83
2023/08/16 09:59:08;;;;;;;2.35;0.40;;;23.50;99.90;;;;;;4953440;28;20098;-83
2023/08/16 10:01:38;;;;;;;2.08;0.30;;;23.50;99.90;;;;;;4958381;28;20043;-82
2023/08/16 10:04:04;;;;;;;;;;;23.80;99.90;;;;;;4945266;28;20035;-83
2023/08/16 10:06:34;;;;;;;1.48;0.30;;;23.90;99.90;;;;;;4954800;28;19910;-84
2023/08/16 10:09:09;;;;;;;1.77;0.40;;;24.30;99.90;;;;;;4940320;28;20487;-84
2023/08/16 10:11:36;;;;;;;2.92;0.30;;;23.80;99.90;;;;;;4946311;28;20027;-83
2023/08/16 10:14:04;;;;;;;1.55;0.32;;;23.60;99.90;;;;;;4955610;28;20522;-82
2023/08/16 10:16:34;;;;;;;0.90;0.30;;;24.00;99.90;;;;;;4946060;28;20042;-84
2023/08/16 10:19:00;;;;;;;;;;;24.30;99.90;;;;;;4954190;28;20058;-83
2023/08/16 10:21:28;;;;;;;3.47;0.50;;;23.80;99.90;;;;;;4954013;28;19929;-82
2023/08/16 10:23:56;;;;;;;2.47;0.40;;;23.90;99.90;;;;;;4960854;28;20464;-83
2023/08/16 10:26:24;;;;;;;1.48;0.32;;;23.70;99.90;;;;;;4968967;28;20032;-82
2023/08/16 10:28:54;;;;;;;4.35;0.35;;;23.90;99.90;;;;;;4958734;28;20293;-82
2023/08/16 10:31:24;;;;;;;0.60;0.30;;;24.10;99.90;;;;;;4957280;28;20037;-82
2023/08/16 10:33:54;;;;;;;1.60;0.30;;;24.50;99.90;;;;;;4944996;28;20408;-82
2023/08/16 10:36:21;;;;;;;1.42;0.30;;;24.70;99.90;;;;;;4955280;28;20115;-82
2023/08/16 10:38:54;;;;;;;1.70;0.30;;;24.60;99.90;;;;;;4958880;28;20273;-82
2023/08/16 10:41:21;;;;;;;2.67;0.30;;;24.60;99.90;;;;;;4961312;28;20041;-82
2023/08/16 10:43:51;;;;;;;1.55;0.30;;;24.50;99.90;;;;;;4957181;28;20081;-82
2023/08/16 10:46:33;;;;;;;3.80;0.43;;;24.30;99.90;;;;;;4954136;28;20085;-82
2023/08/16 10:49:00;;;;;;;1.58;0.40;;;24.00;99.90;;;;;;4958735;28;20338;-82
2023/08/16 10:51:26;;;;;;;2.22;0.30;;;24.00;99.90;;;;;;4956777;28;20431;-82
2023/08/16 10:53:56;;;;;;;1.90;0.30;;;24.10;99.90;;;;;;4953758;28;20019;-81
2023/08/16 10:56:21;;;;;;;1.30;0.30;;;23.60;99.90;;;;;;4960582;28;20546;-83
2023/08/16 10:58:51;;;;;;;2.08;0.30;;;23.80;99.90;;;;;;4939533;28;20034;-82
2023/08/16 11:01:18;;;;;;;1.55;0.30;;;23.60;99.90;;;;;;4967221;28;20502;-82
2023/08/16 11:03:46;;;;;;;1.30;0.30;;;23.70;99.90;;;;;;4945064;28;20023;-82
2023/08/16 11:06:12;;;;;;;1.67;0.35;;;23.90;99.90;;;;;;4942830;28;20100;-81
2023/08/16 11:08:43;;;;;;;1.13;0.20;;;24.00;99.90;;;;;;4960010;28;20167;-83
2023/08/16 11:11:13;;;;;;;1.50;0.30;;;24.70;99.90;;;;;;4948500;28;20082;-82
2023/08/16 11:13:42;;;;;;;1.83;0.40;;;24.90;99.90;;;;;;4957961;28;20034;-82
2023/08/16 11:16:10;;;;;;;;;;;24.60;99.90;;;;;;4965550;28;20059;-82
2023/08/16 11:18:37;;;;;;;0.82;0.30;;;24.90;99.90;;;;;;4945672;28;20454;-83
2023/08/16 11:21:07;;;;;;;0.98;0.32;;;24.70;99.90;;;;;;4963077;28;20031;-83
2023/08/16 11:23:34;;;;;;;;;;;24.50;99.90;;;;;;4956983;28;20042;-82
2023/08/16 11:26:01;;;;;;;1.40;0.30;;;24.40;99.90;;;;;;4958844;28;19922;-82
2023/08/16 11:28:31;;;;;;;2.38;0.45;;;24.00;99.90;;;;;;4960026;28;20391;-82
2023/08/16 11:30:58;;;;;;;1.20;0.40;;;23.60;99.90;;;;;;4957191;28;20035;-81
2023/08/16 11:33:31;;;;;;;2.72;0.38;;;23.50;99.90;;;;;;4944072;28;20050;-82
2023/08/16 11:35:57;;;;;;;1.95;0.40;;;23.60;99.90;;;;;;4944229;28;20189;-82
2023/08/16 11:38:23;;;;;;;1.52;0.20;;;23.80;99.90;;;;;;4963709;28;20503;-82
2023/08/16 11:40:49;;;;;;;1.75;0.20;;;24.00;99.90;;;;;;4958454;28;20031;-82
2023/08/16 11:43:15;;;;;;;1.70;0.30;;;24.10;99.90;;;;;;4962073;28;20097;-82
2023/08/16 11:45:41;;;;;;;1.10;0.30;;;24.30;99.90;;;;;;4959699;28;20468;-83
2023/08/16 11:48:06;;;;;;;1.35;0.30;;;24.50;99.90;;;;;;4959784;28;20086;-81
2023/08/16 11:50:36;;;;;;;1.00;0.20;;;24.30;99.90;;;;;;4959257;28;20118;-82
2023/08/16 11:53:03;;;;;;;1.15;0.30;;;24.40;99.90;;;;;;4957705;28;20038;-82
2023/08/16 11:55:30;;;;;;;1.23;0.30;;;24.20;99.90;;;;;;4962652;28;20030;-83
2023/08/16 11:58:08;;;;;;;1.17;0.30;;;24.30;99.90;;;;;;4959509;28;20038;-82
2023/08/16 12:00:42;;;;;;;0.80;0.20;;;24.30;99.90;;;;;;4946757;28;20094;-82
2023/08/16 12:03:11;;;;;;;1.17;0.20;;;24.70;99.90;;;;;;4972965;28;20713;-82
2023/08/16 12:05:38;;;;;;;0.50;0.20;;;24.90;99.90;;;;;;4957784;28;20034;-82
2023/08/16 12:08:05;;;;;;;1.90;0.30;;;25.30;99.90;;;;;;4961851;28;20049;-83
2023/08/16 12:10:34;;;;;;;0.77;0.30;;;25.30;99.90;;;;;;4959138;28;20486;-82
2023/08/16 12:13:11;;;;;;;1.20;0.20;;;25.00;99.90;;;;;;4945732;28;20031;-82
2023/08/16 12:15:37;;;;;;;1.70;0.52;;;24.50;99.90;;;;;;4945239;28;20094;-81
2023/08/16 12:18:03;;;;;;;1.00;0.30;;;24.30;99.90;;;;;;4957733;28;20118;-83
2023/08/16 12:20:29;;;;;;;0.90;0.20;;;24.60;99.90;;;;;;4956519;28;20035;-83
2023/08/16 12:22:55;;;;;;;1.48;0.47;;;24.90;99.90;;;;;;4946181;28;20475;-82
2023/08/16 12:25:21;;;;;;;1.10;0.30;;;24.90;99.90;;;;;;4958242;28;20027;-82
2023/08/16 12:27:47;;;;;;;1.83;0.40;;;24.90;99.90;;;;;;4945516;28;20392;-82
2023/08/16 12:30:13;;;;;;;3.45;0.30;;;24.50;99.90;;;;;;4962004;28;20034;-81
2023/08/16 12:32:39;;;;;;;1.25;0.30;;;24.50;99.90;;;;;;4960347;28;20031;-83
2023/08/16 12:35:04;;;;;;;1.80;0.40;;;24.90;99.90;;;;;;4955697;28;20635;-82
2023/08/16 12:37:30;;;;;;;3.13;0.35;;;24.90;99.90;;;;;;4956374;28;20045;-82
2023/08/16 12:39:56;;;;;;;1.17;0.30;;;24.60;99.90;;;;;;4956398;28;20027;-83
2023/08/16 12:42:22;;;;;;;1.70;0.30;;;24.90;99.90;;;;;;4955975;28;20045;-83
2023/08/16 12:44:48;;;;;;;0.98;0.30;;;24.80;99.90;;;;;;4956501;28;20027;-82
2023/08/16 12:47:14;;;;;;;1.38;0.22;;;24.50;99.90;;;;;;4956474;28;20027;-83